Time;durP1;ratioP1;P1;durP2;ratioP2;P2;SDS_P1;SDS_P2;PMS_P1;PMS_P2;Temp;Humidity;BMP_temperature;BMP_pressure;BME280_temperature;BME280_humidity;BME280_pressure;Samples;Min_cycle;Max_cycle;Signal;HPM_P1;HPM_P2
2023/08/14 00:00:34;;;;;;;6.78;2.83;;;;;;;;;;5113042;28;20085;-78
2023/08/14 00:03:01;;;;;;;;;;;;;;;;;;5115367;27;20043;-78
2023/08/14 00:05:27;;;;;;;2.58;1.50;;;;;;;;;;5099981;27;19989;-78
2023/08/14 00:07:53;;;;;;;;;;;;;;;;;;5117474;27;20039;-78
2023/08/14 00:10:19;;;;;;;1.25;1.00;;;;;;;;;;5117197;27;19957;-78
2023/08/14 00:12:45;;;;;;;;;;;;;;;;;;5100046;27;20050;-78
2023/08/14 00:15:11;;;;;;;66.25;3.65;;;;;;;;;;5115477;27;19923;-78
2023/08/14 00:17:37;;;;;;;93.88;4.82;;;;;;;;;;5099322;27;20039;-78
2023/08/14 00:20:04;;;;;;;;;;;;;;;;;;5100637;27;20074;-78
2023/08/14 00:22:30;;;;;;;3.78;1.70;;;;;;;;;;5092672;27;19919;-78
2023/08/14 00:24:56;;;;;;;2.63;1.50;;;;;;;;;;5099269;27;20238;-78
2023/08/14 00:27:24;;;;;;;14.13;2.45;;;;;;;;;;5116760;27;20471;-78
2023/08/14 00:29:50;;;;;;;3.25;2.10;;;;;;;;;;5115321;27;20074;-78
2023/08/14 00:32:16;;;;;;;3.92;2.90;;;;;;;;;;5117151;27;20080;-78
2023/08/14 00:34:42;;;;;;;;;;;;;;;;;;5116478;27;20072;-76
2023/08/14 00:37:08;;;;;;;3.78;1.92;;;;;;;;;;5099823;27;19919;-76
2023/08/14 00:39:34;;;;;;;;;;;;;;;;;;5117175;27;20070;-76
2023/08/14 00:42:00;;;;;;;44.03;3.40;;;;;;;;;;5116186;27;20324;-75
2023/08/14 00:44:28;;;;;;;;;;;;;;;;;;5098281;27;20085;-76
2023/08/14 00:46:54;;;;;;;7.32;1.20;;;;;;;;;;5112627;27;19927;-75
2023/08/14 00:49:20;;;;;;;;;;;;;;;;;;5117060;27;20118;-76
2023/08/14 00:51:47;;;;;;;3.97;1.30;;;;;;;;;;5115996;27;20012;-76
2023/08/14 00:54:13;;;;;;;5.72;2.20;;;;;;;;;;5116257;27;20463;-76
2023/08/14 00:56:39;;;;;;;;;;;;;;;;;;5115292;27;20134;-75
2023/08/14 00:59:05;;;;;;;28.90;2.58;;;;;;;;;;5116096;27;20010;-76
2023/08/14 01:01:31;;;;;;;;;;;;;;;;;;5116863;27;20098;-76
2023/08/14 01:03:57;;;;;;;4.80;2.92;;;;;;;;;;5106110;28;20020;-76
2023/08/14 01:06:23;;;;;;;;;;;;;;;;;;5099786;27;20039;-76
2023/08/14 01:08:49;;;;;;;4.00;2.30;;;;;;;;;;5097334;28;19957;-76
2023/08/14 01:11:15;;;;;;;;;;;;;;;;;;5105765;27;20075;-76
2023/08/14 01:13:41;;;;;;;7.65;3.63;;;;;;;;;;5096540;28;19978;-76
2023/08/14 01:16:11;;;;;;;7.47;4.25;;;;;;;;;;5095413;28;20050;-76
2023/08/14 01:18:39;;;;;;;8.85;4.93;;;;;;;;;;5096163;28;20074;-76
2023/08/14 01:21:28;;;;;;;8.25;4.88;;;;;;;;;;5095886;27;20054;-76
2023/08/14 01:24:14;;;;;;;13.57;7.40;;;;;;;;;;5102013;27;20065;-76
2023/08/14 01:26:40;;;;;;;16.02;8.35;;;;;;;;;;5115892;27;20129;-76
2023/08/14 01:29:07;;;;;;;19.35;9.23;;;;;;;;;;5112792;27;20551;-76
2023/08/14 01:31:33;;;;;;;15.00;9.27;;;;;;;;;;5115586;27;20039;-76
2023/08/14 01:33:59;;;;;;;15.30;9.73;;;;;;;;;;5106726;27;20043;-76
2023/08/14 01:36:25;;;;;;;;;;;;;;;;;;5116551;27;20568;-75
2023/08/14 01:39:00;;;;;;;21.95;9.98;;;;;;;;;;5115223;27;20002;-76
2023/08/14 01:41:28;;;;;;;16.35;8.95;;;;;;;;;;5095697;28;20062;-76
2023/08/14 01:43:58;;;;;;;15.88;10.35;;;;;;;;;;5094193;28;20040;-76
2023/08/14 01:46:25;;;;;;;17.50;10.63;;;;;;;;;;5094970;28;20062;-76
2023/08/14 01:48:51;;;;;;;18.55;9.30;;;;;;;;;;5094790;28;20044;-76
2023/08/14 01:51:17;;;;;;;16.45;9.68;;;;;;;;;;5095135;28;20043;-76
2023/08/14 01:53:43;;;;;;;14.98;8.38;;;;;;;;;;5095198;28;20044;-76
2023/08/14 01:56:09;;;;;;;;;;;;;;;;;;5111334;27;20107;-76
2023/08/14 01:58:36;;;;;;;14.20;8.85;;;;;;;;;;5114438;27;19919;-76
2023/08/14 02:01:01;;;;;;;;;;;;;;;;;;5098145;27;20054;-76
2023/08/14 02:03:28;;;;;;;15.35;9.05;;;;;;;;;;5108228;28;19919;-76
2023/08/14 02:05:53;;;;;;;;;;;;;;;;;;5095295;28;20139;-76
2023/08/14 02:08:20;;;;;;;15.70;9.63;;;;;;;;;;5094696;28;19959;-76
2023/08/14 02:10:46;;;;;;;;;;;;;;;;;;5113446;28;20048;-76
2023/08/14 02:13:13;;;;;;;17.00;9.65;;;;;;;;;;5076902;28;19928;-76
2023/08/14 02:15:39;;;;;;;16.15;10.57;;;;;;;;;;5094739;27;20088;-75
2023/08/14 02:18:05;;;;;;;;;;;;;;;;;;5115422;27;20039;-76
2023/08/14 02:20:31;;;;;;;16.40;10.15;;;;;;;;;;5115056;27;19925;-76
2023/08/14 02:22:56;;;;;;;;;;;;;;;;;;5093657;28;20073;-76
2023/08/14 02:25:23;;;;;;;20.35;10.77;;;;;;;;;;5077250;28;19927;-76
2023/08/14 02:27:48;;;;;;;;;;;;;;;;;;5105968;27;20526;-76
2023/08/14 02:30:15;;;;;;;21.45;11.38;;;;;;;;;;5113809;27;19959;-75
2023/08/14 02:32:40;;;;;;;;;;;;;;;;;;5095715;28;20136;-75
2023/08/14 02:35:07;;;;;;;21.50;11.07;;;;;;;;;;5077067;28;19979;-76
2023/08/14 02:37:33;;;;;;;18.02;11.45;;;;;;;;;;5103629;27;20051;-76
2023/08/14 02:39:59;;;;;;;;;;;;;;;;;;5114811;27;20035;-76
2023/08/14 02:42:26;;;;;;;20.52;11.73;;;;;;;;;;5114613;27;19926;-76
2023/08/14 02:44:52;;;;;;;21.58;12.10;;;;;;;;;;5105162;28;20187;-76
2023/08/14 02:47:18;;;;;;;;;;;;;;;;;;5097818;27;20047;-75
2023/08/14 02:49:44;;;;;;;17.48;11.38;;;;;;;;;;5114867;27;19920;-75
2023/08/14 02:52:10;;;;;;;;;;;;;;;;;;5103583;28;20039;-76
2023/08/14 02:54:36;;;;;;;24.42;12.30;;;;;;;;;;5114592;27;20257;-75
2023/08/14 02:57:02;;;;;;;;;;;;;;;;;;5113604;28;20058;-76
2023/08/14 02:59:28;;;;;;;21.90;12.10;;;;;;;;;;5101222;28;19995;-76
2023/08/14 03:01:54;;;;;;;;;;;;;;;;;;5077623;28;20501;-76
2023/08/14 03:04:20;;;;;;;23.40;12.25;;;;;;;;;;5094058;28;19920;-76
2023/08/14 03:06:46;;;;;;;;;;;;;;;;;;5098902;28;20168;-75
2023/08/14 03:09:12;;;;;;;22.98;12.88;;;;;;;;;;5096192;28;19960;-76
2023/08/14 03:11:38;;;;;;;;;;;;;;;;;;5111907;28;20047;-76
2023/08/14 03:14:04;;;;;;;18.80;12.45;;;;;;;;;;5108050;28;20585;-76
2023/08/14 03:16:30;;;;;;;;;;;;;;;;;;5097312;28;20035;-76
2023/08/14 03:18:56;;;;;;;23.90;12.95;;;;;;;;;;5102387;28;19972;-76
2023/08/14 03:21:22;;;;;;;;;;;;;;;;;;5112593;28;20048;-76
2023/08/14 03:23:49;;;;;;;24.70;12.85;;;;;;;;;;5113619;28;19919;-75
2023/08/14 03:26:15;;;;;;;22.30;12.98;;;;;;;;;;5093409;28;20054;-76
2023/08/14 03:28:41;;;;;;;;;;;;;;;;;;5097997;28;20508;-76
2023/08/14 03:31:07;;;;;;;25.10;12.48;;;;;;;;;;5113439;28;20002;-76
2023/08/14 03:33:33;;;;;;;23.83;12.48;;;;;;;;;;5097694;28;20084;-75
2023/08/14 03:35:59;;;;;;;;;;;;;;;;;;5099725;28;20043;-76
2023/08/14 03:38:25;;;;;;;20.42;12.38;;;;;;;;;;5116086;27;19919;-75
2023/08/14 03:40:51;;;;;;;;;;;;;;;;;;5118607;27;20074;-76
2023/08/14 03:43:17;;;;;;;22.50;12.70;;;;;;;;;;5116955;27;19915;-76
2023/08/14 03:45:43;;;;;;;;;;;;;;;;;;5118339;27;20039;-75
2023/08/14 03:48:09;;;;;;;24.13;12.63;;;;;;;;;;5100211;28;19919;-75
2023/08/14 03:50:35;;;;;;;;;;;;;;;;;;5098233;28;20047;-75
2023/08/14 03:53:01;;;;;;;18.63;12.38;;;;;;;;;;5090106;27;19924;-76
2023/08/14 03:55:27;;;;;;;;;;;;;;;;;;5118370;27;20035;-75
2023/08/14 03:57:56;;;;;;;23.00;12.52;;;;;;;;;;5114018;27;19942;-76
2023/08/14 04:00:22;;;;;;;19.75;12.18;;;;;;;;;;5085472;28;20097;-75
2023/08/14 04:02:48;;;;;;;21.50;11.95;;;;;;;;;;5097704;28;20043;-75
2023/08/14 04:05:14;;;;;;;21.48;11.80;;;;;;;;;;5096989;28;20047;-76
2023/08/14 04:07:40;;;;;;;22.67;12.13;;;;;;;;;;5117535;27;20536;-75
2023/08/14 04:10:06;;;;;;;;;;;;;;;;;;5117442;27;20477;-75
2023/08/14 04:12:32;;;;;;;19.90;11.60;;;;;;;;;;5117157;27;19927;-75
2023/08/14 04:14:58;;;;;;;;;;;;;;;;;;5116191;27;20050;-75
2023/08/14 04:17:24;;;;;;;20.08;11.05;;;;;;;;;;5116954;27;19919;-76
2023/08/14 04:19:50;;;;;;;;;;;;;;;;;;5118038;27;20035;-76
2023/08/14 04:22:16;;;;;;;23.10;11.60;;;;;;;;;;5110633;27;19919;-75
2023/08/14 04:24:42;;;;;;;;;;;;;;;;;;5100695;27;20436;-75
2023/08/14 04:27:08;;;;;;;19.75;11.10;;;;;;;;;;5116702;27;20023;-75
2023/08/14 04:29:34;;;;;;;;;;;;;;;;;;5079669;28;20547;-76
2023/08/14 04:32:01;;;;;;;21.60;11.50;;;;;;;;;;5097198;28;19920;-75
2023/08/14 04:34:27;;;;;;;19.75;11.10;;;;;;;;;;5106680;27;20035;-75
2023/08/14 04:36:53;;;;;;;20.80;11.25;;;;;;;;;;5103973;28;20036;-76
2023/08/14 04:39:19;;;;;;;;;;;;;;;;;;5099945;27;20050;-76
2023/08/14 04:41:45;;;;;;;23.00;11.60;;;;;;;;;;5116895;27;19919;-75
2023/08/14 04:44:11;;;;;;;;;;;;;;;;;;5116221;27;20580;-75
2023/08/14 04:46:38;;;;;;;17.48;11.15;;;;;;;;;;5117099;27;19949;-75
2023/08/14 04:49:05;;;;;;;20.05;11.90;;;;;;;;;;5116773;27;20046;-75
2023/08/14 04:51:31;;;;;;;22.50;11.50;;;;;;;;;;5096469;28;20079;-76
2023/08/14 04:53:58;;;;;;;22.05;11.45;;;;;;;;;;5079585;28;20055;-75
2023/08/14 04:56:25;;;;;;;14.45;8.10;;;;;;;;;;5103902;27;20388;-75
2023/08/14 04:58:50;;;;;;;;;;;;;;;;;;5092295;28;20052;-76
2023/08/14 05:01:17;;;;;;;17.65;10.90;;;;;;;;;;5110889;28;19920;-75
2023/08/14 05:03:43;;;;;;;;;;;;;;;;;;5112889;28;20511;-75
2023/08/14 05:06:09;;;;;;;19.25;11.30;;;;;;;;;;5112985;28;19920;-76
2023/08/14 05:08:35;;;;;;;;;;;;;;;;;;5093058;28;20055;-75
2023/08/14 05:11:01;;;;;;;21.45;11.13;;;;;;;;;;5092858;28;19920;-75
2023/08/14 05:13:27;;;;;;;19.20;11.35;;;;;;;;;;5091459;28;20367;-75
2023/08/14 05:15:53;;;;;;;;;;;;;;;;;;5092739;28;20071;-76
2023/08/14 05:18:19;;;;;;;24.38;11.77;;;;;;;;;;5101082;28;20384;-75
2023/08/14 05:20:46;;;;;;;22.00;11.95;;;;;;;;;;5111343;28;20127;-76
2023/08/14 05:23:12;;;;;;;24.35;10.95;;;;;;;;;;5095516;28;20040;-75
2023/08/14 05:25:38;;;;;;;21.85;11.55;;;;;;;;;;5112855;28;20051;-75
2023/08/14 05:28:04;;;;;;;;;;;;;;;;;;5103824;28;20058;-76
2023/08/14 05:30:30;;;;;;;18.75;11.70;;;;;;;;;;5091345;28;19920;-76
2023/08/14 05:32:56;;;;;;;;;;;;;;;;;;5076121;28;20098;-75
2023/08/14 05:35:25;;;;;;;17.60;11.10;;;;;;;;;;5091831;28;20297;-76
2023/08/14 05:37:52;;;;;;;17.30;10.82;;;;;;;;;;5095326;28;20047;-76
2023/08/14 05:40:22;;;;;;;20.90;11.10;;;;;;;;;;5091378;28;20548;-76
2023/08/14 05:43:05;;;;;;;25.25;12.10;;;;;;;;;;5112008;28;20131;-76
2023/08/14 05:45:35;;;;;;;21.50;11.27;;;;;;;;;;5091207;28;20048;-75
2023/08/14 05:48:01;;;;;;;22.63;11.90;;;;;;;;;;5092263;28;20097;-75
2023/08/14 05:50:27;;;;;;;20.38;10.93;;;;;;;;;;5091304;28;20052;-76
2023/08/14 05:52:54;;;;;;;;;;;;;;;;;;5092447;28;20146;-75
2023/08/14 05:55:20;;;;;;;16.20;9.65;;;;;;;;;;5108247;28;20018;-76
2023/08/14 05:57:46;;;;;;;;;;;;;;;;;;5091774;28;20052;-75
2023/08/14 06:00:13;;;;;;;17.58;10.40;;;;;;;;;;5107774;28;19931;-76
2023/08/14 06:02:39;;;;;;;19.80;11.13;;;;;;;;;;5093211;28;20051;-75
2023/08/14 06:05:05;;;;;;;17.35;10.68;;;;;;;;;;5108848;28;20078;-76
2023/08/14 06:07:31;;;;;;;16.90;9.10;;;;;;;;;;5100359;28;20511;-76
2023/08/14 06:09:57;;;;;;;;;;;;;;;;;;5098928;28;20493;-76
2023/08/14 06:12:23;;;;;;;15.02;9.00;;;;;;;;;;5106012;28;19920;-74
2023/08/14 06:14:49;;;;;;;;;;;;;;;;;;5091274;28;20464;-72
2023/08/14 06:17:15;;;;;;;13.35;7.90;;;;;;;;;;5091207;28;20007;-76
2023/08/14 06:19:41;;;;;;;;;;;;;;;;;;5091929;28;20048;-73
2023/08/14 06:22:07;;;;;;;14.90;7.80;;;;;;;;;;5082165;28;20003;-73
2023/08/14 06:24:33;;;;;;;;;;;;;;;;;;5101902;28;20035;-73
2023/08/14 06:26:59;;;;;;;14.68;8.43;;;;;;;;;;5096892;28;19930;-73
2023/08/14 06:29:25;;;;;;;;;;;;;;;;;;5110732;28;20049;-73
2023/08/14 06:31:51;;;;;;;12.98;7.97;;;;;;;;;;5101645;28;19920;-73
2023/08/14 06:34:17;;;;;;;;;;;;;;;;;;5094838;28;20046;-77
2023/08/14 06:36:43;;;;;;;11.35;5.15;;;;;;;;;;5111384;28;19920;-73
2023/08/14 06:39:09;;;;;;;9.10;5.38;;;;;;;;;;5111443;28;20044;-73
2023/08/14 06:41:35;;;;;;;;;;;;;;;;;;5095134;28;20124;-73
2023/08/14 06:44:01;;;;;;;7.55;5.18;;;;;;;;;;5090444;28;20003;-73
2023/08/14 06:46:27;;;;;;;;;;;;;;;;;;5100942;28;20044;-73
2023/08/14 06:48:53;;;;;;;14.20;6.82;;;;;;;;;;5111423;28;20030;-73
2023/08/14 06:51:19;;;;;;;;;;;;;;;;;;5100515;28;20052;-77
2023/08/14 06:53:45;;;;;;;9.38;5.65;;;;;;;;;;5100557;28;19920;-73
2023/08/14 06:56:11;;;;;;;;;;;;;;;;;;5111577;28;20043;-74
2023/08/14 06:58:37;;;;;;;10.82;6.40;;;;;;;;;;5108791;28;19923;-73
2023/08/14 07:01:03;;;;;;;;;;;;;;;;;;5074994;28;20396;-74
2023/08/14 07:03:29;;;;;;;12.45;7.13;;;;;;;;;;5090397;28;19920;-73
2023/08/14 07:05:55;;;;;;;;;;;;;;;;;;5091608;28;20052;-74
2023/08/14 07:08:21;;;;;;;12.27;6.95;;;;;;;;;;5088577;28;19927;-77
2023/08/14 07:10:47;;;;;;;14.32;7.57;;;;;;;;;;5094443;28;20589;-77
2023/08/14 07:13:13;;;;;;;14.63;7.00;;;;;;;;;;5097595;28;20124;-79
2023/08/14 07:15:39;;;;;;;;;;;;;;;;;;5115226;28;20047;-81
2023/08/14 07:18:06;;;;;;;13.27;6.40;;;;;;;;;;5098337;28;19949;-79
2023/08/14 07:20:32;;;;;;;13.82;6.55;;;;;;;;;;5079359;28;20051;-80
2023/08/14 07:22:58;;;;;;;11.80;6.10;;;;;;;;;;5085903;28;20043;-80
2023/08/14 07:25:25;;;;;;;;;;;;;;;;;;5114196;28;20040;-81
2023/08/14 07:27:51;;;;;;;10.73;6.37;;;;;;;;;;5110040;28;19924;-80
2023/08/14 07:30:17;;;;;;;;;;;;;;;;;;5109864;28;20343;-79
2023/08/14 07:32:43;;;;;;;12.48;5.30;;;;;;;;;;5112771;28;19919;-78
2023/08/14 07:35:09;;;;;;;;;;;;;;;;;;5114741;28;20031;-75
2023/08/14 07:37:35;;;;;;;9.40;5.35;;;;;;;;;;5112224;28;19926;-76
2023/08/14 07:40:01;;;;;;;;;;;;;;;;;;5098203;28;20050;-74
2023/08/14 07:42:27;;;;;;;13.05;6.15;;;;;;;;;;5096471;28;20284;-77
2023/08/14 07:44:53;;;;;;;14.40;6.20;;;;;;;;;;5113577;28;20050;-75
2023/08/14 07:47:19;;;;;;;9.98;6.05;;;;;;;;;;5096862;28;20044;-75
2023/08/14 07:49:45;;;;;;;;;;;;;;;;;;5112376;28;20142;-75
2023/08/14 07:52:11;;;;;;;9.38;5.07;;;;;;;;;;5098066;28;19989;-75
2023/08/14 07:54:37;;;;;;;;;;;;;;;;;;5106485;28;20419;-75
2023/08/14 07:57:03;;;;;;;16.98;6.28;;;;;;;;;;5113610;28;19919;-75
2023/08/14 07:59:29;;;;;;;8.70;3.45;;;;;;;;;;5111054;28;20075;-78
2023/08/14 08:01:55;;;;;;;10.82;5.20;;;;;;;;;;5110248;28;20114;-75
2023/08/14 08:04:21;;;;;;;8.82;4.40;;;;;;;;;;5098098;28;20181;-75
2023/08/14 08:06:47;;;;;;;;;;;;;;;;;;5087703;28;20051;-74
2023/08/14 08:09:13;;;;;;;13.90;4.60;;;;;;;;;;5113255;28;19920;-75
2023/08/14 08:11:39;;;;;;;;;;;;;;;;;;5095961;28;20113;-75
2023/08/14 08:14:06;;;;;;;8.63;3.60;;;;;;;;;;5113057;28;19966;-76
2023/08/14 08:16:36;;;;;;;11.20;3.95;;;;;;;;;;5095544;28;20380;-75
2023/08/14 08:19:05;;;;;;;5.47;3.10;;;;;;;;;;5112730;28;20055;-76
2023/08/14 08:21:32;;;;;;;5.47;2.50;;;;;;;;;;5086300;28;20040;-78
2023/08/14 08:23:58;;;;;;;10.70;3.70;;;;;;;;;;5090202;28;20377;-77
2023/08/14 08:51:05;;;;;;;8.00;2.70;;;;;;;;;;5151078;27;20163;-79
2023/08/14 08:53:31;;;;;;;5.25;2.22;;;;;;;;;;5150814;27;20055;-78
2023/08/14 08:55:57;;;;;;;9.07;2.35;;;;;;;;;;5145219;27;20052;-67
2023/08/14 08:58:24;;;;;;;6.85;2.40;;;;;;;;;;5127457;27;20408;-70
2023/08/14 09:00:52;;;;;;;5.63;1.95;;;;;;;;;;5147110;27;20031;-72
2023/08/14 09:03:18;;;;;;;5.35;2.38;;;;;;;;;;5150002;27;20130;-82
2023/08/14 09:05:44;;;;;;;;;;;;;;;;;;5150453;27;20050;-89
2023/08/14 09:08:10;;;;;;;6.75;1.88;;;;;;;;;;5132789;27;19919;-79
2023/08/14 09:10:36;;;;;;;7.70;2.42;;;;;;;;;;5132138;27;20096;-79
2023/08/14 09:13:02;;;;;;;7.10;2.40;;;;;;;;;;5127916;28;20142;-78
2023/08/14 09:15:28;;;;;;;8.25;2.50;;;;;;;;;;5128530;28;20047;-82
2023/08/14 09:17:55;;;;;;;9.35;2.65;;;;;;;;;;5142329;27;20099;-80
2023/08/14 09:20:21;;;;;;;6.93;2.90;;;;;;;;;;5149474;27;20111;-81
2023/08/14 09:22:48;;;;;;;10.27;2.85;;;;;;;;;;5148950;27;20043;-77
2023/08/14 09:25:14;;;;;;;7.70;2.85;;;;;;;;;;5148962;27;20081;-75
2023/08/14 09:27:42;;;;;;;8.52;2.90;;;;;;;;;;5148438;27;20133;-73
2023/08/14 09:30:08;;;;;;;7.82;2.45;;;;;;;;;;5149310;27;20082;-69
2023/08/14 09:32:34;;;;;;;9.63;2.88;;;;;;;;;;5139796;27;20395;-73
2023/08/14 09:35:01;;;;;;;9.88;3.17;;;;;;;;;;5133753;27;20148;-73
2023/08/14 09:37:27;;;;;;;8.90;2.85;;;;;;;;;;5129117;28;20054;-69
2023/08/14 09:40:13;;;;;;;6.18;2.58;;;;;;;;;;5128653;28;20088;-69
2023/08/14 09:42:39;;;;;;;7.60;2.80;;;;;;;;;;5128803;27;20043;-76
2023/08/14 09:45:05;;;;;;;9.00;2.80;;;;;;;;;;5128111;28;20144;-72
2023/08/14 09:47:32;;;;;;;5.72;2.50;;;;;;;;;;5129408;28;20043;-71
2023/08/14 09:49:58;;;;;;;10.75;3.15;;;;;;;;;;5128369;28;20400;-68
2023/08/14 09:52:27;;;;;;;9.55;3.10;;;;;;;;;;5128119;28;20051;-69
2023/08/14 09:54:54;;;;;;;6.00;2.40;;;;;;;;;;5127461;28;20516;-68
2023/08/14 09:57:26;;;;;;;6.35;2.30;;;;;;;;;;5132491;27;20050;-68
2023/08/14 09:59:52;;;;;;;7.47;2.40;;;;;;;;;;5148154;27;20061;-68
2023/08/14 10:02:22;;;;;;;7.22;2.25;;;;;;;;;;5135747;27;20047;-68
2023/08/14 10:04:48;;;;;;;8.93;2.75;;;;;;;;;;5134868;27;20047;-67
2023/08/14 10:07:14;;;;;;;6.80;2.00;;;;;;;;;;5135665;27;20050;-68
2023/08/14 10:09:44;;;;;;;8.23;2.00;;;;;;;;;;5135382;27;20523;-68
2023/08/14 10:12:12;;;;;;;6.32;2.25;;;;;;;;;;5134247;27;20050;-68
2023/08/14 10:14:38;;;;;;;8.13;2.25;;;;;;;;;;5134774;27;20051;-68
2023/08/14 10:17:06;;;;;;;6.70;2.40;;;;;;;;;;5118306;27;20126;-65
2023/08/14 10:19:32;;;;;;;5.60;1.90;;;;;;;;;;5126169;27;20043;-68
2023/08/14 10:21:59;;;;;;;5.78;2.03;;;;;;;;;;5121002;27;20134;-67
2023/08/14 10:24:27;;;;;;;7.25;2.15;;;;;;;;;;5134861;27;20445;-68
2023/08/14 10:26:54;;;;;;;8.43;2.15;;;;;;;;;;5134530;27;20063;-70
2023/08/14 10:29:21;;;;;;;10.85;2.30;;;;;;;;;;5116075;27;20476;-68
2023/08/14 10:31:47;;;;;;;8.90;2.10;;;;;;;;;;5134886;27;20103;-69
2023/08/14 10:34:15;;;;;;;6.28;2.00;;;;;;;;;;5135369;27;20047;-70
2023/08/14 10:36:41;;;;;;;7.00;2.10;;;;;;;;;;5123080;27;20092;-81
2023/08/14 10:39:08;;;;;;;4.72;1.55;;;;;;;;;;5116194;27;20176;-82
2023/08/14 10:41:34;;;;;;;6.20;2.00;;;;;;;;;;5096451;28;20472;-70
2023/08/14 10:44:08;;;;;;;3.65;1.70;;;;;;;;;;5113377;28;20040;-81
2023/08/14 10:46:40;;;;;;;6.95;2.10;;;;;;;;;;5112932;28;20400;-76
2023/08/14 10:49:06;;;;;;;8.85;1.83;;;;;;;;;;5112630;28;20147;-75
2023/08/14 10:51:33;;;;;;;7.93;2.28;;;;;;;;;;5113307;28;20401;-75
2023/08/14 10:54:12;;;;;;;8.23;2.30;;;;;;;;;;5112610;28;20043;-75
2023/08/14 10:56:51;;;;;;;6.20;1.92;;;;;;;;;;5113957;28;20047;-75
2023/08/14 10:59:35;;;;;;;5.38;2.00;;;;;;;;;;5132193;27;20051;-76
2023/08/14 11:02:05;;;;;;;6.15;2.08;;;;;;;;;;5128731;27;20044;-79
2023/08/14 11:04:36;;;;;;;7.00;2.22;;;;;;;;;;5113176;28;20082;-75
2023/08/14 11:07:05;;;;;;;6.75;1.92;;;;;;;;;;5095706;28;20051;-74
2023/08/14 11:09:35;;;;;;;7.07;2.15;;;;;;;;;;5111982;27;20043;-77
2023/08/14 11:12:03;;;;;;;6.55;1.85;;;;;;;;;;5131656;27;20051;-74
2023/08/14 11:14:29;;;;;;;4.93;1.73;;;;;;;;;;5131710;27;20082;-74
2023/08/14 11:16:56;;;;;;;6.95;1.85;;;;;;;;;;5115939;27;20096;-74
2023/08/14 11:19:22;;;;;;;8.40;2.10;;;;;;;;;;5116172;27;20043;-75
2023/08/14 11:21:51;;;;;;;6.82;2.00;;;;;;;;;;5132278;27;20045;-75
2023/08/14 11:24:18;;;;;;;5.28;1.90;;;;;;;;;;5098411;28;20044;-74
2023/08/14 11:26:44;;;;;;;7.70;2.05;;;;;;;;;;5095275;28;20086;-74
2023/08/14 11:29:10;;;;;;;4.72;2.13;;;;;;;;;;5094770;28;20105;-74
2023/08/14 11:31:36;;;;;;;8.68;2.00;;;;;;;;;;5111917;28;20054;-74
2023/08/14 11:34:02;;;;;;;6.30;1.90;;;;;;;;;;5112079;28;20501;-73
2023/08/14 11:36:28;;;;;;;10.88;2.35;;;;;;;;;;5098410;27;20035;-72
2023/08/14 11:38:55;;;;;;;4.13;1.77;;;;;;;;;;5123605;27;20039;-76
2023/08/14 11:41:21;;;;;;;4.45;1.52;;;;;;;;;;5113187;28;20126;-75
2023/08/14 11:43:47;;;;;;;7.68;2.17;;;;;;;;;;5112366;27;20048;-74
2023/08/14 11:46:13;;;;;;;4.57;1.48;;;;;;;;;;5121652;27;20130;-81
2023/08/14 11:48:39;;;;;;;4.32;1.45;;;;;;;;;;5095228;28;20050;-81
2023/08/14 11:51:05;;;;;;;3.78;1.40;;;;;;;;;;5080356;28;20064;-82
2023/08/14 11:53:32;;;;;;;7.63;1.85;;;;;;;;;;5109688;27;20167;-82
2023/08/14 11:55:58;;;;;;;3.78;1.40;;;;;;;;;;5114848;27;20184;-81
2023/08/14 11:58:24;;;;;;;5.47;1.48;;;;;;;;;;5113670;27;20039;-82
2023/08/14 12:00:51;;;;;;;7.70;1.80;;;;;;;;;;5114800;27;20074;-82
2023/08/14 12:03:17;;;;;;;6.53;1.65;;;;;;;;;;5132140;27;20047;-81
2023/08/14 12:05:45;;;;;;;6.10;1.52;;;;;;;;;;5112006;27;20051;-81
2023/08/14 12:08:12;;;;;;;6.85;1.73;;;;;;;;;;5111286;28;20100;-81
2023/08/14 12:10:39;;;;;;;5.65;1.77;;;;;;;;;;5111770;28;20047;-81
2023/08/14 12:13:06;;;;;;;4.30;1.40;;;;;;;;;;5123410;27;20046;-81
2023/08/14 12:15:32;;;;;;;7.97;1.75;;;;;;;;;;5131988;27;20113;-82
2023/08/14 12:17:58;;;;;;;3.97;1.30;;;;;;;;;;5131934;27;20052;-82
2023/08/14 12:20:24;;;;;;;2.78;1.20;;;;;;;;;;5114870;27;20042;-82
2023/08/14 12:22:51;;;;;;;5.88;1.40;;;;;;;;;;5115750;27;20089;-81
2023/08/14 12:25:21;;;;;;;2.08;1.08;;;;;;;;;;5110758;28;20054;-82
2023/08/14 12:27:47;;;;;;;4.25;1.50;;;;;;;;;;5111259;28;20083;-75
2023/08/14 12:30:14;;;;;;;3.28;1.30;;;;;;;;;;5125394;27;20454;-76
2023/08/14 12:32:46;;;;;;;3.30;1.27;;;;;;;;;;5135216;27;20391;-76
2023/08/14 12:35:13;;;;;;;3.80;1.25;;;;;;;;;;5112049;27;20039;-75
2023/08/14 12:37:39;;;;;;;7.35;1.70;;;;;;;;;;5118101;27;20130;-75
2023/08/14 12:40:09;;;;;;;6.05;1.60;;;;;;;;;;5100429;28;20043;-76
2023/08/14 12:42:36;;;;;;;5.55;1.60;;;;;;;;;;5105068;28;20065;-75
2023/08/14 12:45:02;;;;;;;3.75;1.30;;;;;;;;;;5106789;28;20120;-75
2023/08/14 12:47:28;;;;;;;5.47;2.00;;;;;;;;;;5133417;27;20059;-75
2023/08/14 12:49:54;;;;;;;6.50;1.45;;;;;;;;;;5105251;28;20469;-75
2023/08/14 12:52:20;;;;;;;5.90;1.77;;;;;;;;;;5100847;28;20059;-75
2023/08/14 12:54:47;;;;;;;4.50;1.63;;;;;;;;;;5125650;28;20408;-78
2023/08/14 12:57:15;;;;;;;5.78;1.65;;;;;;;;;;5116490;28;20112;-75
2023/08/14 12:59:41;;;;;;;5.28;1.63;;;;;;;;;;5103078;28;20046;-75
2023/08/14 13:02:07;;;;;;;5.90;1.60;;;;;;;;;;5117710;28;20047;-76
2023/08/14 13:04:34;;;;;;;7.38;2.00;;;;;;;;;;5113236;28;20575;-75
2023/08/14 13:07:00;;;;;;;5.65;1.60;;;;;;;;;;5123743;27;20069;-78
2023/08/14 13:09:26;;;;;;;4.65;1.85;;;;;;;;;;5111760;28;20043;-75
2023/08/14 13:11:52;;;;;;;6.35;1.63;;;;;;;;;;5121043;27;20506;-76
2023/08/14 13:14:18;;;;;;;10.95;1.98;;;;;;;;;;5116537;27;20422;-77
2023/08/14 13:16:44;;;;;;;1.63;1.10;;;;;;;;;;5111755;28;20047;-78
2023/08/14 13:19:10;;;;;;;2.72;1.35;;;;;;;;;;5105482;27;20050;-77
2023/08/14 13:21:36;;;;;;;6.93;2.00;;;;;;;;;;5098613;28;20531;-77
2023/08/14 13:24:02;;;;;;;6.13;1.70;;;;;;;;;;5109445;27;20043;-80
2023/08/14 13:26:28;;;;;;;6.20;1.90;;;;;;;;;;5110036;27;20087;-77
2023/08/14 13:28:54;;;;;;;7.22;1.75;;;;;;;;;;5110062;27;20040;-76
2023/08/14 13:31:20;;;;;;;2.30;1.10;;;;;;;;;;5108630;28;20039;-77
2023/08/14 13:33:46;;;;;;;6.70;1.52;;;;;;;;;;5116226;27;20109;-77
2023/08/14 13:36:13;;;;;;;6.70;1.83;;;;;;;;;;5110282;27;20079;-77
2023/08/14 13:38:39;;;;;;;6.93;1.75;;;;;;;;;;5108722;27;20039;-77
2023/08/14 13:41:05;;;;;;;5.28;1.50;;;;;;;;;;5130088;27;20128;-77
2023/08/14 13:43:31;;;;;;;7.53;1.70;;;;;;;;;;5123630;27;20493;-77
2023/08/14 13:45:57;;;;;;;4.47;1.67;;;;;;;;;;5116371;27;20105;-77
2023/08/14 13:48:23;;;;;;;5.03;1.17;;;;;;;;;;5116247;27;20095;-77
2023/08/14 13:50:49;;;;;;;4.25;1.52;;;;;;;;;;5133593;27;20057;-77
2023/08/14 13:53:15;;;;;;;6.10;1.92;;;;;;;;;;5116321;27;20560;-76
2023/08/14 13:55:43;;;;;;;6.43;1.67;;;;;;;;;;5112007;27;20484;-81
2023/08/14 13:58:09;;;;;;;5.40;1.73;;;;;;;;;;5127162;27;20100;-82
2023/08/14 14:00:35;;;;;;;7.03;1.90;;;;;;;;;;5131512;27;20403;-78
2023/08/14 14:03:02;;;;;;;5.88;1.92;;;;;;;;;;5134359;27;20039;-67
2023/08/14 14:05:28;;;;;;;6.95;1.70;;;;;;;;;;5125017;27;20415;-69
2023/08/14 14:07:54;;;;;;;7.05;1.70;;;;;;;;;;5124856;27;20393;-69
2023/08/14 14:10:20;;;;;;;3.97;1.55;;;;;;;;;;5134221;27;20535;-70
2023/08/14 14:12:46;;;;;;;3.53;1.42;;;;;;;;;;5134581;27;20039;-69
2023/08/14 14:15:12;;;;;;;5.32;1.55;;;;;;;;;;5133693;27;20039;-69
2023/08/14 14:17:38;;;;;;;2.72;1.30;;;;;;;;;;5135225;27;20070;-67
2023/08/14 14:20:08;;;;;;;4.80;1.75;;;;;;;;;;5133977;27;20032;-77
2023/08/14 14:22:34;;;;;;;6.20;1.90;;;;;;;;;;5121265;27;20075;-89
2023/08/14 14:25:00;;;;;;;6.35;1.80;;;;;;;;;;5131532;27;20071;-77
2023/08/14 14:27:26;;;;;;;5.93;1.80;;;;;;;;;;5129194;27;20493;-76
2023/08/14 14:29:54;;;;;;;7.90;1.77;;;;;;;;;;5117995;27;20103;-76
2023/08/14 14:32:20;;;;;;;6.53;1.83;;;;;;;;;;5127675;27;20047;-76
2023/08/14 14:34:46;;;;;;;4.10;1.70;;;;;;;;;;5133935;27;20039;-76
2023/08/14 14:37:12;;;;;;;3.53;1.45;;;;;;;;;;5116208;27;20614;-80
2023/08/14 14:39:38;;;;;;;5.85;1.60;;;;;;;;;;5119144;27;20476;-80
2023/08/14 14:42:04;;;;;;;4.55;1.55;;;;;;;;;;5133581;27;20126;-80
2023/08/14 14:44:30;;;;;;;6.03;1.77;;;;;;;;;;5111970;27;20268;-80
2023/08/14 14:46:56;;;;;;;7.88;1.92;;;;;;;;;;5111633;27;20138;-80
2023/08/14 14:49:23;;;;;;;8.73;1.98;;;;;;;;;;5132694;27;20039;-80
2023/08/14 14:51:49;;;;;;;1.58;1.10;;;;;;;;;;5114754;27;20555;-80
2023/08/14 14:54:15;;;;;;;1.67;0.90;;;;;;;;;;5119127;27;20043;-79
2023/08/14 14:56:41;;;;;;;4.05;1.38;;;;;;;;;;5133081;27;20043;-79
2023/08/14 14:59:07;;;;;;;5.53;1.60;;;;;;;;;;5132731;27;20495;-82
2023/08/14 15:01:33;;;;;;;8.77;2.33;;;;;;;;;;5125644;27;20630;-82
2023/08/14 15:03:59;;;;;;;5.80;1.63;;;;;;;;;;5112953;28;20051;-81
2023/08/14 15:06:25;;;;;;;5.93;1.88;;;;;;;;;;5132499;27;20035;-84
2023/08/14 15:08:51;;;;;;;5.90;1.70;;;;;;;;;;5114173;27;20437;-76
2023/08/14 15:11:17;;;;;;;7.40;1.80;;;;;;;;;;5123951;27;20415;-79
2023/08/14 15:13:43;;;;;;;8.73;1.90;;;;;;;;;;5114938;27;20083;-82
2023/08/14 15:16:09;;;;;;;9.38;1.88;;;;;;;;;;5132754;27;20088;-81
2023/08/14 15:18:35;;;;;;;7.07;1.58;;;;;;;;;;5132656;27;20288;-82